createdAt,value
2023-05-22T00:02:58.572Z,12.65
2023-05-22T00:08:00.338Z,12.27
2023-05-22T00:13:02.006Z,10.18
2023-05-22T00:18:04.044Z,14.38
2023-05-22T00:23:10.149Z,10.05
2023-05-22T00:28:11.950Z,10.60
2023-05-22T00:33:13.638Z,12.90
2023-05-22T00:38:32.579Z,10.98
2023-05-22T00:43:34.623Z,11.85
2023-05-22T00:48:36.423Z,11.18
2023-05-22T00:53:38.165Z,14.15
2023-05-22T00:58:39.869Z,12.20
2023-05-22T01:03:44.877Z,13.88
2023-05-22T01:08:47.399Z,14.07
2023-05-22T01:13:58.056Z,14.73
2023-05-22T01:19:06.332Z,15.05
2023-05-22T01:24:37.242Z,10.43
2023-05-22T01:30:16.202Z,11.32
2023-05-22T01:35:19.180Z,12.27
2023-05-22T01:40:21.296Z,13.05
2023-05-22T01:45:23.032Z,13.65
2023-05-22T01:50:24.891Z,13.85
2023-05-22T01:55:45.238Z,11.70
2023-05-22T02:00:47.352Z,14.27
2023-05-22T02:05:53.496Z,14.98
2023-05-22T02:10:56.178Z,11.85
2023-05-22T02:15:58.558Z,14.93
2023-05-22T02:21:00.720Z,15.82
2023-05-22T02:26:02.382Z,13.15
2023-05-22T02:31:04.309Z,14.25
2023-05-22T02:36:10.806Z,13.98
2023-05-22T02:41:12.544Z,14.25
2023-05-22T02:46:14.373Z,14.45
2023-05-22T02:51:16.582Z,14.60
2023-05-22T02:56:18.888Z,14.80
2023-05-22T03:01:22.005Z,16.08
2023-05-22T03:06:25.425Z,13.90
2023-05-22T03:11:28.311Z,16.17
2023-05-22T03:16:30.222Z,14.60
2023-05-22T03:21:32.588Z,23.13
2023-05-22T03:26:34.432Z,15.60
2023-05-22T03:31:38.764Z,15.32
2023-05-22T03:36:43.032Z,13.80
2023-05-22T03:41:44.728Z,14.70
2023-05-22T03:46:47.530Z,17.80
2023-05-22T03:51:50.369Z,14.85
2023-05-22T03:56:52.095Z,13.52
2023-05-22T04:01:54.653Z,11.48
2023-05-22T04:06:58.254Z,10.40
2023-05-22T04:12:01.757Z,13.77
2023-05-22T04:17:03.494Z,11.35
2023-05-22T04:22:05.176Z,11.77
2023-05-22T04:27:06.990Z,12.05
2023-05-22T04:32:10.901Z,10.60
2023-05-22T04:37:15.140Z,9.95
2023-05-22T04:42:17.541Z,10.25
2023-05-22T04:47:19.676Z,9.13
2023-05-22T04:52:22.076Z,10.18
2023-05-22T04:57:25.632Z,10.80
2023-05-22T05:02:27.545Z,14.00
2023-05-22T05:07:29.447Z,10.88
2023-05-22T05:12:32.084Z,9.00
2023-05-22T05:17:33.895Z,9.88
2023-05-22T05:22:37.482Z,8.75
2023-05-22T05:27:40.654Z,9.23
2023-05-22T05:32:43.814Z,8.40
2023-05-22T05:38:04.186Z,11.95
2023-05-22T05:43:09.346Z,8.27
2023-05-22T05:48:12.176Z,8.98
2023-05-22T05:53:18.259Z,9.05
2023-05-22T05:58:25.749Z,8.55
2023-05-22T06:03:50.837Z,7.40
2023-05-22T06:08:59.447Z,7.63
2023-05-22T06:14:08.212Z,9.65
2023-05-22T06:19:09.949Z,7.68
2023-05-22T06:24:11.712Z,7.60
2023-05-22T06:29:14.448Z,9.93
2023-05-22T06:34:16.278Z,7.95
2023-05-22T06:39:18.690Z,12.10
2023-05-22T06:44:44.902Z,8.73
2023-05-22T06:49:46.695Z,8.02
2023-05-22T06:54:50.013Z,10.10
2023-05-22T06:59:52.173Z,7.10
2023-05-22T07:05:13.817Z,8.23
2023-05-22T07:10:27.766Z,9.50
2023-05-22T07:15:29.958Z,6.60
2023-05-22T07:20:39.843Z,9.73
2023-05-22T07:25:48.363Z,7.72
2023-05-22T07:30:51.292Z,6.53
2023-05-22T07:35:53.454Z,6.93
2023-05-22T07:40:56.174Z,6.65
2023-05-22T07:45:59.085Z,8.60
2023-05-22T07:51:05.584Z,7.32
2023-05-22T07:56:07.725Z,4.72
2023-05-22T08:01:13.622Z,7.03
2023-05-22T08:06:17.775Z,7.03
2023-05-22T08:11:19.452Z,4.28
2023-05-22T08:16:21.177Z,5.43
2023-05-22T08:21:22.964Z,5.38
2023-05-22T08:26:24.621Z,7.85
2023-05-22T08:31:28.008Z,4.07
2023-05-22T08:36:34.382Z,6.15
2023-05-22T08:41:36.243Z,4.82
2023-05-22T08:46:41.592Z,6.55
2023-05-22T08:51:47.955Z,6.03
2023-05-22T08:56:56.682Z,4.35
2023-05-22T09:01:59.458Z,4.50
2023-05-22T09:07:05.779Z,3.47
2023-05-22T09:12:09.329Z,4.15
2023-05-22T09:17:13.589Z,5.25
2023-05-22T09:27:18.452Z,3.72
2023-05-22T09:32:22.487Z,4.55
2023-05-22T09:37:24.252Z,5.57
2023-05-22T09:42:25.932Z,6.22
2023-05-22T09:47:27.721Z,6.05
2023-05-22T09:52:29.524Z,6.00
2023-05-22T09:57:34.455Z,7.63
2023-05-22T10:02:38.215Z,5.20
2023-05-22T10:07:47.256Z,4.93
2023-05-22T10:13:01.644Z,7.05
2023-05-22T10:18:05.618Z,5.28
2023-05-22T10:23:08.153Z,7.18
2023-05-22T10:28:10.421Z,4.90
2023-05-22T10:33:26.326Z,4.43
2023-05-22T10:38:52.400Z,7.22
2023-05-22T10:43:56.591Z,4.88
2023-05-22T10:48:58.471Z,4.28
2023-05-22T10:54:05.432Z,8.52
2023-05-22T10:59:09.975Z,4.90
2023-05-22T11:04:12.186Z,3.67
2023-05-22T11:09:19.001Z,5.78
2023-05-22T11:14:20.845Z,3.65
2023-05-22T11:19:23.860Z,5.50
2023-05-22T11:24:26.049Z,6.07
2023-05-22T11:29:29.366Z,5.05
2023-05-22T11:34:31.141Z,5.85
2023-05-22T11:39:33.147Z,5.60
2023-05-22T11:44:34.946Z,4.72
2023-05-22T11:49:36.609Z,4.03
2023-05-22T11:54:39.040Z,5.85
2023-05-22T11:59:44.800Z,5.18
2023-05-22T12:04:46.857Z,5.30
2023-05-22T12:09:49.137Z,4.50
2023-05-22T12:14:50.966Z,3.80
2023-05-22T12:19:53.349Z,4.70
2023-05-22T12:24:55.646Z,5.28
2023-05-22T12:29:58.078Z,4.50
2023-05-22T12:34:59.997Z,6.28
2023-05-22T12:40:04.020Z,5.43
2023-05-22T12:45:06.175Z,6.35
2023-05-22T12:50:08.527Z,6.05
2023-05-22T12:55:10.724Z,5.00
2023-05-22T13:00:13.042Z,3.63
2023-05-22T13:05:21.843Z,5.28
2023-05-22T13:10:23.589Z,5.35
2023-05-22T13:15:25.572Z,3.95
2023-05-22T13:20:27.206Z,4.45
2023-05-22T13:25:28.867Z,8.68
2023-05-22T13:30:30.745Z,4.50
2023-05-22T13:35:32.534Z,4.20
2023-05-22T13:40:34.215Z,4.47
2023-05-22T13:45:35.872Z,6.38
2023-05-22T13:50:37.602Z,4.53
2023-05-22T13:55:39.516Z,4.32
2023-05-22T14:00:41.371Z,6.72
2023-05-22T14:05:44.098Z,6.03
2023-05-22T14:10:45.838Z,6.00
2023-05-22T14:15:47.503Z,7.57
2023-05-22T14:20:49.166Z,6.60
2023-05-22T14:25:51.147Z,4.43
2023-05-22T14:30:52.909Z,5.65
2023-05-22T14:35:54.702Z,4.55
2023-05-22T14:40:56.383Z,5.00
2023-05-22T14:45:59.158Z,6.07
2023-05-22T14:51:00.985Z,5.28
2023-05-22T14:56:02.720Z,5.07
2023-05-22T15:01:04.621Z,7.90
2023-05-22T15:06:06.378Z,6.18
2023-05-22T15:11:08.082Z,4.57
2023-05-22T15:16:09.737Z,4.70
2023-05-22T15:21:11.962Z,5.90
2023-05-22T15:26:13.628Z,7.90
2023-05-22T15:31:15.337Z,6.03
2023-05-22T15:36:17.048Z,6.78
2023-05-22T15:41:18.864Z,3.80
2023-05-22T15:46:20.758Z,6.70
2023-05-22T15:51:22.608Z,6.22
2023-05-22T15:56:24.543Z,8.02
2023-05-22T16:01:26.313Z,4.30
2023-05-22T16:06:28.580Z,4.10
2023-05-22T16:11:30.263Z,3.78
2023-05-22T16:16:31.968Z,5.85
2023-05-22T16:21:33.712Z,5.97
2023-05-22T16:26:37.640Z,3.60
2023-05-22T16:31:39.389Z,4.13
2023-05-22T16:36:41.154Z,4.50
2023-05-22T16:41:42.838Z,5.32
2023-05-22T16:46:44.543Z,3.35
2023-05-22T16:51:46.370Z,7.20
2023-05-22T16:56:48.130Z,4.32
2023-05-22T17:01:49.995Z,4.57
2023-05-22T17:06:53.857Z,5.03
2023-05-22T17:11:55.759Z,4.78
2023-05-22T17:16:57.476Z,4.82
2023-05-22T17:21:59.225Z,4.22
2023-05-22T17:27:01.197Z,4.85
2023-05-22T17:32:05.268Z,5.25
2023-05-22T17:37:07.074Z,4.32
2023-05-22T17:42:08.768Z,5.35
2023-05-22T17:47:10.519Z,6.32
2023-05-22T17:52:13.184Z,4.95
2023-05-22T17:57:16.033Z,5.97
2023-05-22T18:02:17.925Z,6.15
2023-05-22T18:07:20.029Z,5.55
2023-05-22T18:12:31.120Z,5.80
2023-05-22T18:17:33.778Z,4.80
2023-05-22T18:22:38.405Z,3.85
2023-05-22T18:27:40.355Z,4.80
2023-05-22T18:32:42.026Z,6.90
2023-05-22T18:37:43.979Z,6.60
2023-05-22T18:42:45.654Z,5.38
2023-05-22T18:47:47.521Z,6.00
2023-05-22T18:52:49.299Z,6.65
2023-05-22T18:57:51.235Z,7.43
2023-05-22T19:02:53.058Z,4.80
2023-05-22T19:07:55.042Z,4.50
2023-05-22T19:12:56.776Z,4.93
2023-05-22T19:17:58.508Z,5.90
2023-05-22T19:23:00.562Z,4.15
2023-05-22T19:28:02.213Z,6.43
2023-05-22T19:33:04.470Z,5.90
2023-05-22T19:38:07.588Z,4.97
2023-05-22T19:43:09.273Z,5.95
2023-05-22T19:48:11.031Z,7.90
2023-05-22T19:53:12.781Z,6.30
2023-05-22T19:58:14.432Z,4.95
2023-05-22T20:03:16.970Z,3.92
2023-05-22T20:08:18.905Z,5.88
2023-05-22T20:13:20.604Z,4.88
2023-05-22T20:18:22.956Z,5.85
2023-05-22T20:23:24.633Z,8.05
2023-05-22T20:28:26.442Z,5.78
2023-05-22T20:33:28.318Z,4.80
2023-05-22T20:38:30.233Z,6.18
2023-05-22T20:43:32.037Z,4.53
2023-05-22T20:48:33.820Z,7.47
2023-05-22T20:53:35.622Z,6.47
2023-05-22T20:58:39.098Z,9.35
2023-05-22T21:03:41.218Z,5.80
2023-05-22T21:08:42.984Z,5.63
2023-05-22T21:13:44.811Z,5.75
2023-05-22T21:18:46.673Z,6.18
2023-05-22T21:23:49.122Z,5.22
2023-05-22T21:28:50.956Z,5.88
2023-05-22T21:33:52.668Z,5.85
2023-05-22T21:38:56.461Z,8.77
2023-05-22T21:43:58.402Z,7.45
2023-05-22T21:49:02.955Z,5.63
2023-05-22T21:54:04.753Z,5.50
2023-05-22T21:59:06.454Z,4.25
2023-05-22T22:04:08.433Z,5.25
2023-05-22T22:09:10.127Z,7.50
2023-05-22T22:14:11.843Z,4.80
2023-05-22T22:19:13.661Z,6.78
2023-05-22T22:24:15.759Z,6.47
2023-05-22T22:29:17.470Z,5.93
2023-05-22T22:34:19.263Z,5.30
2023-05-22T22:39:20.932Z,4.47
2023-05-22T22:44:22.604Z,6.32
2023-05-22T22:49:24.312Z,5.15
2023-05-22T22:54:25.952Z,5.18
2023-05-22T22:59:27.767Z,6.20
2023-05-22T23:04:29.662Z,5.47
2023-05-22T23:09:31.387Z,7.25
2023-05-22T23:14:33.028Z,5.30
2023-05-22T23:19:34.739Z,6.70
2023-05-22T23:24:36.484Z,6.03
2023-05-22T23:29:38.176Z,7.28
2023-05-22T23:34:39.884Z,7.00
2023-05-22T23:39:41.519Z,7.78
2023-05-22T23:44:43.672Z,6.57
2023-05-22T23:49:45.597Z,5.60
2023-05-22T23:54:47.331Z,8.63
2023-05-22T23:59:49.034Z,4.95
